createdAt,value
2023-04-19T00:00:49.004Z,99760.06
2023-04-19T00:03:18.411Z,99759.84
2023-04-19T00:05:49.022Z,99751.41
2023-04-19T00:08:17.714Z,99748.72
2023-04-19T00:10:46.392Z,99737.63
2023-04-19T00:13:15.144Z,99742.56
2023-04-19T00:15:43.808Z,99750.19
2023-04-19T00:18:12.449Z,99741.56
2023-04-19T00:20:41.173Z,99738.66
2023-04-19T00:23:11.240Z,99730.81
2023-04-19T00:25:40.235Z,99728.38
2023-04-19T00:28:08.919Z,99732.91
2023-04-19T00:30:37.570Z,99727.13
2023-04-19T00:33:12.817Z,99735.16
2023-04-19T00:35:43.059Z,99735.38
2023-04-19T00:38:13.229Z,99723.47
2023-04-19T00:40:41.954Z,99730.00
2023-04-19T00:43:10.723Z,99727.53
2023-04-19T00:45:39.684Z,99731.66
2023-04-19T00:48:08.606Z,99723.25
2023-04-19T00:50:37.516Z,99717.69
2023-04-19T00:53:06.463Z,99717.94
2023-04-19T00:55:38.753Z,99725.53
2023-04-19T00:58:08.831Z,99719.59
2023-04-19T01:00:38.180Z,99713.19
2023-04-19T01:03:08.986Z,99712.75
2023-04-19T01:05:38.246Z,99704.94
2023-04-19T01:08:08.437Z,99702.47
2023-04-19T01:10:38.601Z,99700.41
2023-04-19T01:13:07.293Z,99701.66
2023-04-19T01:15:39.739Z,99704.16
2023-04-19T01:18:08.487Z,99696.13
2023-04-19T01:20:37.209Z,99697.97
2023-04-19T01:23:11.563Z,99696.09
2023-04-19T01:25:40.441Z,99699.41
2023-04-19T01:28:09.132Z,99692.66
2023-04-19T01:30:38.147Z,99686.88
2023-04-19T01:33:06.765Z,99687.50
2023-04-19T01:35:35.413Z,99685.66
2023-04-19T01:38:05.463Z,99681.16
2023-04-19T01:40:35.991Z,99687.53
2023-04-19T01:43:07.691Z,99688.97
2023-04-19T01:45:36.956Z,99683.84
2023-04-19T01:48:06.182Z,99690.59
2023-04-19T01:50:36.761Z,99682.59
2023-04-19T01:53:06.661Z,99686.28
2023-04-19T01:55:36.880Z,99686.50
2023-04-19T01:58:05.533Z,99689.78
2023-04-19T02:00:34.322Z,99686.28
2023-04-19T02:03:06.408Z,99688.16
2023-04-19T02:05:35.229Z,99689.16
2023-04-19T02:08:03.852Z,99689.59
2023-04-19T02:10:33.032Z,99682.41
2023-04-19T02:13:03.210Z,99683.22
2023-04-19T02:15:31.920Z,99682.59
2023-04-19T02:18:01.374Z,99677.66
2023-04-19T02:20:31.360Z,99676.25
2023-04-19T02:23:00.156Z,99670.09
2023-04-19T02:25:29.709Z,99671.28
2023-04-19T02:27:58.420Z,99668.22
2023-04-19T02:30:28.489Z,99666.78
2023-04-19T02:32:58.813Z,99667.59
2023-04-19T02:35:27.650Z,99671.31
2023-04-19T02:37:56.665Z,99668.03
2023-04-19T02:40:28.272Z,99665.97
2023-04-19T02:42:56.930Z,99666.59
2023-04-19T02:45:27.127Z,99659.81
2023-04-19T02:47:57.027Z,99662.91
2023-04-19T02:50:25.801Z,99656.75
2023-04-19T02:52:55.080Z,99662.09
2023-04-19T02:55:26.571Z,99669.25
2023-04-19T02:58:05.660Z,99657.34
2023-04-19T03:00:39.966Z,99659.59
2023-04-19T03:03:13.016Z,99656.13
2023-04-19T03:05:41.987Z,99648.72
2023-04-19T03:08:12.117Z,99642.16
2023-04-19T03:10:41.469Z,99648.53
2023-04-19T03:13:11.384Z,99649.53
2023-04-19T03:15:41.501Z,99640.09
2023-04-19T03:18:11.049Z,99642.38
2023-04-19T03:20:42.170Z,99637.19
2023-04-19T03:23:11.022Z,99633.94
2023-04-19T03:25:40.263Z,99635.19
2023-04-19T03:28:20.728Z,99631.25
2023-04-19T03:31:09.404Z,99623.25
2023-04-19T03:33:39.752Z,99626.53
2023-04-19T03:36:09.278Z,99625.94
2023-04-19T03:38:40.899Z,99615.47
2023-04-19T03:41:25.423Z,99612.16
2023-04-19T03:44:17.471Z,99608.88
2023-04-19T03:46:49.020Z,99599.00
2023-04-19T03:49:22.654Z,99598.00
2023-04-19T03:52:00.798Z,99596.56
2023-04-19T03:54:29.855Z,99589.78
2023-04-19T03:56:59.558Z,99599.84
2023-04-19T03:59:28.691Z,99597.78
2023-04-19T04:01:59.353Z,99592.88
2023-04-19T04:04:30.708Z,99596.97
2023-04-19T04:06:59.709Z,99596.34
2023-04-19T04:09:28.387Z,99597.34
2023-04-19T04:11:57.784Z,99605.16
2023-04-19T04:14:26.876Z,99598.78
2023-04-19T04:17:00.122Z,99595.75
2023-04-19T04:19:30.578Z,99608.22
2023-04-19T04:21:59.797Z,99606.78
2023-04-19T04:24:30.271Z,99599.59
2023-04-19T04:27:13.599Z,99608.44
2023-04-19T04:29:44.082Z,99609.03
2023-04-19T04:32:14.404Z,99605.16
2023-04-19T04:34:45.823Z,99602.88
2023-04-19T04:37:20.956Z,99613.75
2023-04-19T04:39:49.930Z,99613.75
2023-04-19T04:42:21.725Z,99610.06
2023-04-19T04:44:51.193Z,99608.41
2023-04-19T04:47:20.313Z,99612.34
2023-04-19T04:49:56.849Z,99611.28
2023-04-19T04:52:25.788Z,99604.50
2023-04-19T04:55:03.181Z,99606.34
2023-04-19T04:57:35.644Z,99607.75
2023-04-19T05:00:07.952Z,99608.41
2023-04-19T05:02:45.276Z,99618.25
2023-04-19T05:05:15.787Z,99612.09
2023-04-19T05:07:44.537Z,99610.63
2023-04-19T05:10:13.797Z,99604.09
2023-04-19T05:12:47.017Z,99599.16
2023-04-19T05:15:16.926Z,99610.25
2023-04-19T05:17:50.821Z,99603.03
2023-04-19T05:20:22.950Z,99599.50
2023-04-19T05:23:00.794Z,99601.34
2023-04-19T05:25:29.886Z,99600.56
2023-04-19T05:27:59.129Z,99603.44
2023-04-19T05:30:33.222Z,99602.97
2023-04-19T05:33:02.772Z,99605.84
2023-04-19T05:35:33.035Z,99607.69
2023-04-19T05:38:01.878Z,99600.13
2023-04-19T05:40:31.011Z,99607.91
2023-04-19T05:43:00.699Z,99605.41
2023-04-19T05:45:29.689Z,99610.00
2023-04-19T05:47:58.453Z,99612.47
2023-04-19T05:50:58.190Z,99611.19
2023-04-19T05:53:48.047Z,99611.63
2023-04-19T05:56:17.040Z,99609.53
2023-04-19T05:58:45.762Z,99606.63
2023-04-19T06:01:14.645Z,99606.19
2023-04-19T06:03:43.616Z,99618.94
2023-04-19T06:06:14.888Z,99616.03
2023-04-19T06:08:43.697Z,99603.38
2023-04-19T06:11:23.223Z,99604.41
2023-04-19T06:13:53.513Z,99603.78
2023-04-19T06:16:22.731Z,99606.66
2023-04-19T06:18:51.569Z,99605.06
2023-04-19T06:21:21.661Z,99612.47
2023-04-19T06:23:50.283Z,99612.84
2023-04-19T06:26:19.216Z,99603.84
2023-04-19T06:28:47.862Z,99607.56
2023-04-19T06:31:16.570Z,99610.25
2023-04-19T06:33:46.069Z,99612.50
2023-04-19T06:36:14.847Z,99604.69
2023-04-19T06:38:46.629Z,99600.19
2023-04-19T06:41:15.381Z,99596.50
2023-04-19T06:43:44.994Z,99590.56
2023-04-19T06:46:15.918Z,99582.16
2023-04-19T06:48:44.811Z,99583.38
2023-04-19T06:51:13.489Z,99591.16
2023-04-19T06:53:42.146Z,99583.59
2023-04-19T06:56:13.504Z,99585.81
2023-04-19T06:58:42.196Z,99590.97
2023-04-19T07:01:10.921Z,99585.44
2023-04-19T07:03:39.920Z,99599.81
2023-04-19T07:06:09.156Z,99588.50
2023-04-19T07:08:49.185Z,99589.31
2023-04-19T07:11:21.232Z,99594.47
2023-04-19T07:13:52.059Z,99600.63
2023-04-19T07:16:21.894Z,99594.03
2023-04-19T07:18:50.704Z,99588.28
2023-04-19T07:21:19.399Z,99575.59
2023-04-19T07:23:48.144Z,99565.50
2023-04-19T07:26:16.902Z,99559.56
2023-04-19T07:28:47.710Z,99560.81
2023-04-19T07:31:17.811Z,99557.50
2023-04-19T07:33:47.052Z,99558.75
2023-04-19T07:36:15.931Z,99567.78
2023-04-19T07:38:44.855Z,99560.19
2023-04-19T07:41:13.761Z,99560.81
2023-04-19T07:43:42.575Z,99560.81
2023-04-19T07:46:16.145Z,99567.38
2023-04-19T07:48:44.999Z,99563.50
2023-04-19T07:51:16.849Z,99559.38
2023-04-19T07:53:48.167Z,99539.66
2023-04-19T07:56:17.141Z,99552.16
2023-04-19T07:58:50.907Z,99550.50
2023-04-19T08:01:26.955Z,99554.22
2023-04-19T08:03:55.895Z,99555.41
2023-04-19T08:06:24.887Z,99545.94
2023-04-19T08:08:53.677Z,99545.56
2023-04-19T08:11:22.357Z,99551.50
2023-04-19T08:14:28.510Z,99539.78
2023-04-19T08:17:19.519Z,99548.38
2023-04-19T08:19:29.828Z,99549.75
2023-04-19T08:21:58.580Z,99538.84
2023-04-19T08:24:27.609Z,99541.31
2023-04-19T08:26:57.090Z,99528.31
2023-04-19T08:29:27.521Z,99534.63
2023-04-19T08:31:57.687Z,99516.50
2023-04-19T08:34:26.472Z,99521.03
2023-04-19T08:37:03.531Z,99517.03
2023-04-19T08:39:34.405Z,99518.47
2023-04-19T08:42:13.316Z,99517.22
2023-04-19T08:45:13.763Z,99507.25
2023-04-19T08:47:59.554Z,99520.16
2023-04-19T08:53:16.499Z,99514.41
2023-04-19T08:56:08.797Z,99509.44
2023-04-19T08:58:57.981Z,99514.38
2023-04-19T09:01:34.548Z,99499.03
2023-04-19T09:04:34.054Z,99509.94
2023-04-19T09:06:57.190Z,99502.44
2023-04-19T09:09:37.013Z,99497.53
2023-04-19T09:12:18.819Z,99493.06
2023-04-19T09:17:20.736Z,99479.66
2023-04-19T09:19:51.314Z,99471.81
2023-04-19T09:22:20.306Z,99473.13
2023-04-19T09:27:30.496Z,99473.81
2023-04-19T09:30:01.157Z,99467.81
2023-04-19T09:32:31.464Z,99466.25
2023-04-19T09:35:01.994Z,99458.31
2023-04-19T09:37:56.793Z,99460.56
2023-04-19T09:40:25.381Z,99462.66
2023-04-19T09:43:08.583Z,99459.38
2023-04-19T09:45:44.328Z,99464.75
2023-04-19T09:48:14.602Z,99455.31
2023-04-19T09:51:04.561Z,99454.50
2023-04-19T09:53:35.482Z,99464.50
2023-04-19T09:56:06.281Z,99452.88
2023-04-19T09:58:48.905Z,99450.25
2023-04-19T10:01:22.648Z,99459.63
2023-04-19T10:03:53.091Z,99463.66
2023-04-19T10:08:56.820Z,99450.81
2023-04-19T10:11:37.249Z,99451.25
2023-04-19T10:14:08.630Z,99437.41
2023-04-19T10:16:39.649Z,99440.78
2023-04-19T10:19:12.903Z,99444.03
2023-04-19T10:21:46.750Z,99428.47
2023-04-19T10:24:18.552Z,99431.91
2023-04-19T10:27:12.277Z,99425.88
2023-04-19T10:30:01.952Z,99420.66
2023-04-19T10:32:38.299Z,99435.53
2023-04-19T10:35:12.008Z,99419.50
2023-04-19T10:38:03.005Z,99418.81
2023-04-19T10:41:04.253Z,99410.50
2023-04-19T10:43:34.415Z,99407.00
2023-04-19T10:46:09.205Z,99396.94
2023-04-19T10:48:53.722Z,99398.53
2023-04-19T10:51:28.151Z,99398.56
2023-04-19T10:54:00.515Z,99402.56
2023-04-19T10:57:10.316Z,99412.41
2023-04-19T10:59:40.514Z,99409.53
2023-04-19T11:02:30.863Z,99405.09
2023-04-19T11:05:04.151Z,99397.09
2023-04-19T11:07:41.288Z,99410.28
2023-04-19T11:10:12.885Z,99401.66
2023-04-19T11:12:46.035Z,99389.72
2023-04-19T11:15:14.818Z,99389.91
2023-04-19T11:17:43.649Z,99383.88
2023-04-19T11:20:14.795Z,99375.19
2023-04-19T11:22:46.268Z,99372.66
2023-04-19T11:25:19.548Z,99364.31
2023-04-19T11:27:50.953Z,99355.88
2023-04-19T11:30:22.718Z,99352.53
2023-04-19T11:32:55.002Z,99343.63
2023-04-19T11:35:25.670Z,99337.34
2023-04-19T11:37:56.380Z,99338.25
2023-04-19T11:40:27.720Z,99335.72
2023-04-19T11:43:00.574Z,99331.78
2023-04-19T11:45:34.516Z,99340.59
2023-04-19T11:48:07.753Z,99336.78
2023-04-19T11:50:39.994Z,99339.41
2023-04-19T11:53:17.197Z,99347.34
2023-04-19T11:55:51.524Z,99332.00
2023-04-19T11:58:31.157Z,99344.47
2023-04-19T12:01:06.653Z,99340.56
2023-04-19T12:03:37.195Z,99357.31
2023-04-19T12:06:09.219Z,99357.00
2023-04-19T12:08:40.332Z,99368.19
2023-04-19T12:11:10.633Z,99364.13
2023-04-19T12:13:40.948Z,99353.81
2023-04-19T12:16:10.070Z,99345.75
2023-04-19T12:18:50.305Z,99344.97
2023-04-19T12:21:32.123Z,99334.38
2023-04-19T12:24:03.767Z,99342.44
2023-04-19T12:26:34.167Z,99340.34
2023-04-19T12:29:04.887Z,99340.34
2023-04-19T12:31:34.067Z,99339.25
2023-04-19T12:34:03.104Z,99328.94
2023-04-19T12:36:31.894Z,99333.19
2023-04-19T12:39:00.616Z,99332.41
2023-04-19T12:41:29.317Z,99325.88
2023-04-19T12:43:59.372Z,99319.41
2023-04-19T12:46:28.479Z,99314.34
2023-04-19T12:48:57.567Z,99311.75
2023-04-19T12:51:27.989Z,99310.22
2023-04-19T12:53:56.750Z,99320.69
2023-04-19T12:56:37.982Z,99319.06
2023-04-19T12:59:08.050Z,99321.94
2023-04-19T13:01:37.329Z,99311.50
2023-04-19T13:04:09.130Z,99309.16
2023-04-19T13:06:38.433Z,99313.66
2023-04-19T13:09:14.360Z,99313.66
2023-04-19T13:11:43.917Z,99312.00
2023-04-19T13:14:14.699Z,99304.75
2023-04-19T13:16:43.793Z,99299.56
2023-04-19T13:19:12.942Z,99296.13
2023-04-19T13:21:45.278Z,99290.19
2023-04-19T13:24:15.976Z,99283.91
2023-04-19T13:26:46.518Z,99284.97
2023-04-19T13:29:17.641Z,99278.31
2023-04-19T13:31:49.515Z,99272.28
2023-04-19T13:34:19.014Z,99261.78
2023-04-19T13:36:50.015Z,99254.31
2023-04-19T13:39:21.306Z,99256.25
2023-04-19T13:41:50.416Z,99247.31
2023-04-19T13:44:20.696Z,99248.06
2023-04-19T13:46:49.837Z,99244.34
2023-04-19T13:49:22.225Z,99242.81
2023-04-19T13:51:51.161Z,99235.03
2023-04-19T13:54:21.322Z,99240.53
2023-04-19T13:56:52.271Z,99237.13
2023-04-19T13:59:26.135Z,99241.56
2023-04-19T14:01:56.018Z,99246.84
2023-04-19T14:04:25.562Z,99229.56
2023-04-19T14:06:54.840Z,99235.72
2023-04-19T14:09:23.610Z,99233.53
2023-04-19T14:11:58.963Z,99237.66
2023-04-19T14:14:31.615Z,99235.25
2023-04-19T14:17:01.663Z,99243.56
2023-04-19T14:19:32.235Z,99244.53
2023-04-19T14:22:02.094Z,99246.31
2023-04-19T14:24:32.211Z,99267.19
2023-04-19T14:29:39.601Z,99260.81
2023-04-19T14:32:26.072Z,99276.94
2023-04-19T14:34:57.302Z,99275.56
2023-04-19T14:37:26.324Z,99278.47
2023-04-19T14:39:55.620Z,99281.88
2023-04-19T14:42:26.315Z,99283.97
2023-04-19T14:45:00.837Z,99290.25
2023-04-19T14:47:29.901Z,99293.09
2023-04-19T14:49:59.469Z,99289.00
2023-04-19T14:52:30.459Z,99290.16
2023-04-19T14:54:59.943Z,99293.84
2023-04-19T14:57:29.298Z,99283.72
2023-04-19T15:00:01.419Z,99286.88
2023-04-19T15:02:30.489Z,99294.53
2023-04-19T15:04:59.544Z,99289.59
2023-04-19T15:07:28.688Z,99296.38
2023-04-19T15:09:57.369Z,99295.53
2023-04-19T15:12:26.323Z,99290.25
2023-04-19T15:14:55.182Z,99294.25
2023-04-19T15:17:26.824Z,99289.50
2023-04-19T15:19:55.659Z,99288.63
2023-04-19T15:22:24.679Z,99293.84
2023-04-19T15:24:53.740Z,99298.59
2023-04-19T15:27:22.863Z,99299.28
2023-04-19T15:29:52.257Z,99306.47
2023-04-19T15:32:21.285Z,99311.28
2023-04-19T15:34:51.689Z,99318.13
2023-04-19T15:37:21.102Z,99320.13
2023-04-19T15:39:50.330Z,99316.22
2023-04-19T15:42:19.127Z,99323.56
2023-04-19T15:44:48.007Z,99320.78
2023-04-19T15:47:17.381Z,99325.16
2023-04-19T15:49:47.446Z,99320.84
2023-04-19T15:52:18.929Z,99321.25
2023-04-19T15:54:49.216Z,99322.34
2023-04-19T15:57:18.089Z,99319.38
2023-04-19T15:59:46.959Z,99320.78
2023-04-19T16:02:15.916Z,99328.56
2023-04-19T16:04:47.876Z,99323.25
2023-04-19T16:07:18.309Z,99328.44
2023-04-19T16:09:47.016Z,99323.25
2023-04-19T16:12:15.823Z,99329.84
2023-04-19T16:14:44.542Z,99325.25
2023-04-19T16:17:13.233Z,99323.69
2023-04-19T16:19:42.180Z,99324.72
2023-04-19T16:22:13.873Z,99317.91
2023-04-19T16:24:44.071Z,99315.28
2023-04-19T16:27:13.931Z,99313.00
2023-04-19T16:29:45.192Z,99307.13
2023-04-19T16:32:14.227Z,99309.97
2023-04-19T16:34:43.415Z,99301.72
2023-04-19T16:37:12.046Z,99303.94
2023-04-19T16:39:41.515Z,99303.88
2023-04-19T16:42:12.649Z,99295.66
2023-04-19T16:44:41.489Z,99291.47
2023-04-19T16:47:10.696Z,99285.09
2023-04-19T16:49:39.525Z,99285.53
2023-04-19T16:52:08.197Z,99281.66
2023-04-19T16:54:38.009Z,99289.22
2023-04-19T16:57:06.924Z,99280.31
2023-04-19T16:59:37.214Z,99278.81
2023-04-19T17:02:08.960Z,99271.78
2023-04-19T17:04:38.218Z,99270.09
2023-04-19T17:07:08.801Z,99266.81
2023-04-19T17:09:38.105Z,99274.41
2023-04-19T17:12:34.845Z,99273.06
2023-04-19T17:15:06.878Z,99271.50
2023-04-19T17:17:38.402Z,99266.16
2023-04-19T17:20:09.132Z,99263.91
2023-04-19T17:22:38.040Z,99267.84
2023-04-19T17:25:08.119Z,99268.66
2023-04-19T17:27:39.151Z,99269.34
2023-04-19T17:30:10.816Z,99267.72
2023-04-19T17:32:39.658Z,99266.91
2023-04-19T17:35:09.523Z,99268.38
2023-04-19T17:37:38.471Z,99262.00
2023-04-19T17:40:09.364Z,99265.53
2023-04-19T17:42:38.365Z,99266.19
2023-04-19T17:45:11.343Z,99265.38
2023-04-19T17:47:40.339Z,99262.31
2023-04-19T17:50:13.018Z,99262.53
2023-04-19T17:52:42.221Z,99261.50
2023-04-19T17:55:11.520Z,99265.19
2023-04-19T17:57:40.789Z,99256.16
2023-04-19T18:00:17.195Z,99261.50
2023-04-19T18:02:46.973Z,99266.84
2023-04-19T18:05:17.638Z,99267.28
2023-04-19T18:07:46.874Z,99273.88
2023-04-19T18:10:16.000Z,99276.75
2023-04-19T18:12:46.098Z,99276.16
2023-04-19T18:15:17.160Z,99279.41
2023-04-19T18:17:46.642Z,99279.66
2023-04-19T18:20:16.659Z,99265.91
2023-04-19T18:22:49.065Z,99277.03
2023-04-19T18:25:18.089Z,99273.53
2023-04-19T18:27:48.300Z,99273.97
2023-04-19T18:30:19.389Z,99268.63
2023-04-19T18:32:50.145Z,99268.41
2023-04-19T18:35:19.180Z,99268.00
2023-04-19T18:37:47.900Z,99273.13
2023-04-19T18:40:17.743Z,99274.78
2023-04-19T18:42:46.889Z,99271.50
2023-04-19T18:45:17.843Z,99277.88
2023-04-19T18:47:47.399Z,99278.31
2023-04-19T18:50:19.028Z,99274.44
2023-04-19T18:52:48.152Z,99276.34
2023-04-19T18:55:18.062Z,99274.31
2023-04-19T18:57:46.696Z,99270.22
2023-04-19T19:00:19.036Z,99271.22
2023-04-19T19:02:48.060Z,99279.25
2023-04-19T19:05:16.987Z,99270.03
2023-04-19T19:07:46.099Z,99279.13
2023-04-19T19:10:19.022Z,99275.88
2023-04-19T19:12:50.940Z,99275.31
2023-04-19T19:15:21.091Z,99276.31
2023-04-19T19:17:50.701Z,99272.22
2023-04-19T19:20:20.520Z,99278.81
2023-04-19T19:22:49.482Z,99276.00
2023-04-19T19:25:18.657Z,99272.72
2023-04-19T19:28:05.379Z,99275.25
2023-04-19T19:30:39.853Z,99276.50
2023-04-19T19:33:09.190Z,99273.00
2023-04-19T19:35:39.613Z,99276.25
2023-04-19T19:38:08.734Z,99267.03
2023-04-19T19:40:58.241Z,99271.34
2023-04-19T19:43:26.608Z,99272.59
2023-04-19T19:45:56.830Z,99271.56
2023-04-19T19:48:26.481Z,99270.34
2023-04-19T19:53:31.974Z,99274.03
2023-04-19T19:56:01.832Z,99275.09
2023-04-19T19:58:48.181Z,99270.56
2023-04-19T20:01:22.601Z,99270.59
2023-04-19T20:03:52.568Z,99273.03
2023-04-19T20:08:54.472Z,99263.00
2023-04-19T20:11:23.630Z,99257.47
2023-04-19T20:13:52.476Z,99255.63
2023-04-19T20:16:23.506Z,99255.63
2023-04-19T20:18:52.732Z,99259.31
2023-04-19T20:21:21.499Z,99258.50
2023-04-19T20:24:19.647Z,99263.41
2023-04-19T20:26:49.612Z,99257.69
2023-04-19T20:29:18.426Z,99260.16
2023-04-19T20:31:48.749Z,99262.81
2023-04-19T20:34:17.876Z,99256.88
2023-04-19T20:36:47.303Z,99260.34
2023-04-19T20:39:16.378Z,99261.38
2023-04-19T20:41:47.978Z,99257.69
2023-04-19T20:44:17.811Z,99256.66
2023-04-19T20:46:48.837Z,99257.69
2023-04-19T20:49:17.701Z,99263.03
2023-04-19T20:51:48.460Z,99262.63
2023-04-19T20:54:17.209Z,99258.94
2023-04-19T20:56:45.896Z,99255.66
2023-04-19T20:59:14.884Z,99260.59
2023-04-19T21:01:43.899Z,99261.78
2023-04-19T21:04:14.288Z,99260.16
2023-04-19T21:06:45.154Z,99258.50
2023-04-19T21:09:14.278Z,99258.13
2023-04-19T21:11:42.951Z,99256.47
2023-04-19T21:14:11.671Z,99259.75
2023-04-19T21:16:40.538Z,99252.78
2023-04-19T21:19:09.237Z,99249.50
2023-04-19T21:21:39.398Z,99250.75
2023-04-19T21:24:09.779Z,99256.06
2023-04-19T21:26:38.476Z,99251.13
2023-04-19T21:29:07.166Z,99252.97
2023-04-19T21:31:35.820Z,99251.34
2023-04-19T21:34:04.940Z,99252.38
2023-04-19T21:36:33.717Z,99251.13
2023-04-19T21:39:04.097Z,99247.66
2023-04-19T21:41:32.804Z,99250.75
2023-04-19T21:44:01.537Z,99249.13
2023-04-19T21:46:30.231Z,99250.75
2023-04-19T21:48:58.947Z,99248.69
2023-04-19T21:51:27.689Z,99248.47
2023-04-19T21:53:56.436Z,99250.75
2023-04-19T21:56:26.788Z,99254.81
2023-04-19T21:58:55.576Z,99258.94
2023-04-19T22:01:24.256Z,99254.44
2023-04-19T22:03:53.120Z,99259.94
2023-04-19T22:06:22.079Z,99250.94
2023-04-19T22:08:51.425Z,99251.56
2023-04-19T22:11:20.128Z,99252.38
2023-04-19T22:13:50.308Z,99260.53
2023-04-19T22:16:19.162Z,99260.34
2023-04-19T22:18:48.119Z,99258.50
2023-04-19T22:21:16.861Z,99253.59
2023-04-19T22:23:46.660Z,99252.16
2023-04-19T22:26:15.364Z,99252.53
2023-04-19T22:28:44.162Z,99254.00
2023-04-19T22:31:14.212Z,99255.22
2023-04-19T22:33:42.904Z,99244.16
2023-04-19T22:36:11.774Z,99245.59
2023-04-19T22:38:40.430Z,99246.63
2023-04-19T22:41:09.129Z,99251.94
2023-04-19T22:43:38.006Z,99244.16
2023-04-19T22:46:06.949Z,99241.72
2023-04-19T22:48:37.325Z,99244.38
2023-04-19T22:51:06.578Z,99245.19
2023-04-19T22:53:35.563Z,99241.31
2023-04-19T22:56:04.348Z,99240.88
2023-04-19T22:58:33.098Z,99243.53
2023-04-19T23:01:01.931Z,99237.59
2023-04-19T23:03:30.692Z,99240.84
2023-04-19T23:06:03.508Z,99241.66
2023-04-19T23:08:33.443Z,99236.09
2023-04-19T23:11:02.260Z,99235.50
2023-04-19T23:13:30.972Z,99233.06
2023-04-19T23:15:59.851Z,99230.63
2023-04-19T23:18:30.029Z,99236.78
2023-04-19T23:21:00.171Z,99240.69
2023-04-19T23:23:28.869Z,99238.41
2023-04-19T23:25:57.541Z,99242.94
2023-04-19T23:28:26.332Z,99235.53
2023-04-19T23:30:55.122Z,99234.34
2023-04-19T23:33:23.847Z,99228.59
2023-04-19T23:35:52.815Z,99236.34
2023-04-19T23:38:23.177Z,99228.13
2023-04-19T23:40:51.883Z,99233.22
2023-04-19T23:43:20.533Z,99235.06
2023-04-19T23:45:49.205Z,99235.28
2023-04-19T23:48:17.961Z,99234.22
2023-04-19T23:50:46.602Z,99232.19
2023-04-19T23:53:15.261Z,99227.06
2023-04-19T23:55:45.324Z,99233.84
2023-04-19T23:58:14.185Z,99236.03
